sensor_id;sensor_type;location;lat;lon;timestamp;P1;durP1;ratioP1;P2;durP2;ratioP2
29574;SDS011;16507;51.046;6.406;2022-11-20T00:02:20;28.60;;;17.23;;
29574;SDS011;16507;51.046;6.406;2022-11-20T00:04:46;28.83;;;17.23;;
29574;SDS011;16507;51.046;6.406;2022-11-20T00:07:11;33.75;;;16.90;;
29574;SDS011;16507;51.046;6.406;2022-11-20T00:09:37;29.27;;;18.13;;
29574;SDS011;16507;51.046;6.406;2022-11-20T00:12:02;27.50;;;17.10;;
29574;SDS011;16507;51.046;6.406;2022-11-20T00:14:28;30.92;;;17.10;;
29574;SDS011;16507;51.046;6.406;2022-11-20T00:16:54;32.30;;;17.83;;
29574;SDS011;16507;51.046;6.406;2022-11-20T00:19:19;29.75;;;17.42;;
29574;SDS011;16507;51.046;6.406;2022-11-20T00:21:45;39.60;;;18.25;;
29574;SDS011;16507;51.046;6.406;2022-11-20T00:24:11;23.70;;;17.08;;
29574;SDS011;16507;51.046;6.406;2022-11-20T00:26:36;28.40;;;18.02;;
29574;SDS011;16507;51.046;6.406;2022-11-20T00:29:02;36.28;;;17.63;;
29574;SDS011;16507;51.046;6.406;2022-11-20T00:31:28;26.17;;;16.92;;
29574;SDS011;16507;51.046;6.406;2022-11-20T00:33:55;27.33;;;16.88;;
29574;SDS011;16507;51.046;6.406;2022-11-20T00:36:22;28.90;;;16.65;;
29574;SDS011;16507;51.046;6.406;2022-11-20T00:38:53;30.02;;;16.35;;
29574;SDS011;16507;51.046;6.406;2022-11-20T00:41:20;28.92;;;17.70;;
29574;SDS011;16507;51.046;6.406;2022-11-20T00:43:46;29.95;;;16.85;;
29574;SDS011;16507;51.046;6.406;2022-11-20T00:46:16;46.33;;;17.48;;
29574;SDS011;16507;51.046;6.406;2022-11-20T00:48:43;31.02;;;17.10;;
29574;SDS011;16507;51.046;6.406;2022-11-20T00:51:10;26.02;;;17.15;;
29574;SDS011;16507;51.046;6.406;2022-11-20T00:53:37;33.15;;;17.15;;
29574;SDS011;16507;51.046;6.406;2022-11-20T00:56:04;24.73;;;16.05;;
29574;SDS011;16507;51.046;6.406;2022-11-20T00:58:32;29.35;;;16.13;;
29574;SDS011;16507;51.046;6.406;2022-11-20T01:01:00;30.95;;;16.38;;
29574;SDS011;16507;51.046;6.406;2022-11-20T01:03:30;27.98;;;17.50;;
29574;SDS011;16507;51.046;6.406;2022-11-20T01:05:59;32.05;;;16.00;;
29574;SDS011;16507;51.046;6.406;2022-11-20T01:08:28;29.20;;;17.30;;
29574;SDS011;16507;51.046;6.406;2022-11-20T01:10:58;23.77;;;16.00;;
29574;SDS011;16507;51.046;6.406;2022-11-20T01:13:25;27.90;;;16.48;;
29574;SDS011;16507;51.046;6.406;2022-11-20T01:18:33;26.13;;;16.85;;
29574;SDS011;16507;51.046;6.406;2022-11-20T01:21:03;28.05;;;17.38;;
29574;SDS011;16507;51.046;6.406;2022-11-20T01:23:34;41.25;;;18.40;;
29574;SDS011;16507;51.046;6.406;2022-11-20T01:26:01;30.15;;;16.63;;
29574;SDS011;16507;51.046;6.406;2022-11-20T01:28:29;29.92;;;17.27;;
29574;SDS011;16507;51.046;6.406;2022-11-20T01:30:54;35.40;;;17.95;;
29574;SDS011;16507;51.046;6.406;2022-11-20T01:33:20;37.95;;;18.65;;
29574;SDS011;16507;51.046;6.406;2022-11-20T01:35:46;28.25;;;17.42;;
29574;SDS011;16507;51.046;6.406;2022-11-20T01:38:11;42.55;;;18.80;;
29574;SDS011;16507;51.046;6.406;2022-11-20T01:40:37;36.05;;;17.65;;
29574;SDS011;16507;51.046;6.406;2022-11-20T01:43:36;30.48;;;17.02;;
29574;SDS011;16507;51.046;6.406;2022-11-20T01:45:59;31.60;;;18.45;;
29574;SDS011;16507;51.046;6.406;2022-11-20T01:48:25;28.17;;;18.20;;
29574;SDS011;16507;51.046;6.406;2022-11-20T01:50:54;32.67;;;18.05;;
29574;SDS011;16507;51.046;6.406;2022-11-20T01:53:23;33.42;;;18.20;;
29574;SDS011;16507;51.046;6.406;2022-11-20T01:55:55;35.97;;;17.73;;
29574;SDS011;16507;51.046;6.406;2022-11-20T01:58:24;35.17;;;18.33;;
29574;SDS011;16507;51.046;6.406;2022-11-20T02:00:53;32.20;;;17.83;;
29574;SDS011;16507;51.046;6.406;2022-11-20T02:03:19;39.88;;;17.50;;
29574;SDS011;16507;51.046;6.406;2022-11-20T02:08:13;37.63;;;16.83;;
29574;SDS011;16507;51.046;6.406;2022-11-20T02:10:40;39.92;;;18.35;;
29574;SDS011;16507;51.046;6.406;2022-11-20T02:13:06;41.22;;;18.27;;
29574;SDS011;16507;51.046;6.406;2022-11-20T02:15:50;40.38;;;18.48;;
29574;SDS011;16507;51.046;6.406;2022-11-20T02:18:17;38.90;;;18.27;;
29574;SDS011;16507;51.046;6.406;2022-11-20T02:20:45;66.60;;;21.52;;
29574;SDS011;16507;51.046;6.406;2022-11-20T02:26:01;31.42;;;19.75;;
29574;SDS011;16507;51.046;6.406;2022-11-20T02:28:30;36.42;;;20.73;;
29574;SDS011;16507;51.046;6.406;2022-11-20T02:30:56;38.72;;;19.65;;
29574;SDS011;16507;51.046;6.406;2022-11-20T02:33:22;32.90;;;18.65;;
29574;SDS011;16507;51.046;6.406;2022-11-20T02:35:47;32.65;;;18.55;;
29574;SDS011;16507;51.046;6.406;2022-11-20T02:38:15;35.55;;;19.65;;
29574;SDS011;16507;51.046;6.406;2022-11-20T02:40:41;35.15;;;19.45;;
29574;SDS011;16507;51.046;6.406;2022-11-20T02:43:07;30.80;;;18.65;;
29574;SDS011;16507;51.046;6.406;2022-11-20T02:45:33;38.05;;;19.83;;
29574;SDS011;16507;51.046;6.406;2022-11-20T02:47:58;51.15;;;19.67;;
29574;SDS011;16507;51.046;6.406;2022-11-20T02:50:24;36.08;;;18.58;;
29574;SDS011;16507;51.046;6.406;2022-11-20T02:52:51;33.63;;;18.50;;
29574;SDS011;16507;51.046;6.406;2022-11-20T02:55:16;42.92;;;18.20;;
29574;SDS011;16507;51.046;6.406;2022-11-20T02:57:42;51.15;;;19.48;;
29574;SDS011;16507;51.046;6.406;2022-11-20T03:00:08;31.80;;;18.30;;
29574;SDS011;16507;51.046;6.406;2022-11-20T03:02:34;35.92;;;18.90;;
29574;SDS011;16507;51.046;6.406;2022-11-20T03:05:00;33.45;;;18.90;;
29574;SDS011;16507;51.046;6.406;2022-11-20T03:07:25;40.63;;;19.88;;
29574;SDS011;16507;51.046;6.406;2022-11-20T03:09:51;36.88;;;19.13;;
29574;SDS011;16507;51.046;6.406;2022-11-20T03:12:16;35.05;;;19.50;;
29574;SDS011;16507;51.046;6.406;2022-11-20T03:14:42;38.78;;;20.33;;
29574;SDS011;16507;51.046;6.406;2022-11-20T03:17:07;37.08;;;18.95;;
29574;SDS011;16507;51.046;6.406;2022-11-20T03:19:33;43.80;;;20.33;;
29574;SDS011;16507;51.046;6.406;2022-11-20T03:21:59;38.85;;;20.45;;
29574;SDS011;16507;51.046;6.406;2022-11-20T03:24:25;37.03;;;19.58;;
29574;SDS011;16507;51.046;6.406;2022-11-20T03:26:51;32.80;;;18.58;;
29574;SDS011;16507;51.046;6.406;2022-11-20T03:29:16;40.58;;;20.90;;
29574;SDS011;16507;51.046;6.406;2022-11-20T03:31:42;34.88;;;19.25;;
29574;SDS011;16507;51.046;6.406;2022-11-20T03:34:08;35.55;;;19.42;;
29574;SDS011;16507;51.046;6.406;2022-11-20T03:36:37;35.80;;;19.45;;
29574;SDS011;16507;51.046;6.406;2022-11-20T03:39:03;36.58;;;19.27;;
29574;SDS011;16507;51.046;6.406;2022-11-20T03:41:30;37.65;;;19.55;;
29574;SDS011;16507;51.046;6.406;2022-11-20T03:43:57;36.08;;;19.65;;
29574;SDS011;16507;51.046;6.406;2022-11-20T03:46:25;43.53;;;20.67;;
29574;SDS011;16507;51.046;6.406;2022-11-20T03:48:51;34.63;;;19.83;;
29574;SDS011;16507;51.046;6.406;2022-11-20T03:51:21;32.88;;;18.80;;
29574;SDS011;16507;51.046;6.406;2022-11-20T03:53:49;38.72;;;19.60;;
29574;SDS011;16507;51.046;6.406;2022-11-20T03:56:17;40.88;;;19.42;;
29574;SDS011;16507;51.046;6.406;2022-11-20T03:58:44;37.83;;;18.95;;
29574;SDS011;16507;51.046;6.406;2022-11-20T04:01:11;42.90;;;20.40;;
29574;SDS011;16507;51.046;6.406;2022-11-20T04:03:39;36.85;;;19.70;;
29574;SDS011;16507;51.046;6.406;2022-11-20T04:06:06;30.75;;;18.77;;
29574;SDS011;16507;51.046;6.406;2022-11-20T04:08:40;32.38;;;17.92;;
29574;SDS011;16507;51.046;6.406;2022-11-20T04:11:10;35.20;;;18.92;;
29574;SDS011;16507;51.046;6.406;2022-11-20T04:13:37;35.03;;;18.02;;
29574;SDS011;16507;51.046;6.406;2022-11-20T04:16:03;33.22;;;17.30;;
29574;SDS011;16507;51.046;6.406;2022-11-20T04:18:30;32.75;;;17.67;;
29574;SDS011;16507;51.046;6.406;2022-11-20T04:20:56;37.30;;;18.58;;
29574;SDS011;16507;51.046;6.406;2022-11-20T04:23:22;29.67;;;17.25;;
29574;SDS011;16507;51.046;6.406;2022-11-20T04:25:48;34.30;;;17.27;;
29574;SDS011;16507;51.046;6.406;2022-11-20T04:28:13;32.53;;;17.77;;
29574;SDS011;16507;51.046;6.406;2022-11-20T04:30:39;31.95;;;17.13;;
29574;SDS011;16507;51.046;6.406;2022-11-20T04:33:05;30.85;;;18.10;;
29574;SDS011;16507;51.046;6.406;2022-11-20T04:35:33;26.55;;;17.17;;
29574;SDS011;16507;51.046;6.406;2022-11-20T04:37:59;28.05;;;17.88;;
29574;SDS011;16507;51.046;6.406;2022-11-20T04:40:24;26.80;;;17.52;;
29574;SDS011;16507;51.046;6.406;2022-11-20T04:42:50;28.70;;;18.10;;
29574;SDS011;16507;51.046;6.406;2022-11-20T04:45:16;30.50;;;17.88;;
29574;SDS011;16507;51.046;6.406;2022-11-20T04:47:41;30.00;;;18.27;;
29574;SDS011;16507;51.046;6.406;2022-11-20T04:50:07;27.52;;;17.98;;
29574;SDS011;16507;51.046;6.406;2022-11-20T04:52:35;28.30;;;18.45;;
29574;SDS011;16507;51.046;6.406;2022-11-20T04:55:01;27.42;;;17.45;;
29574;SDS011;16507;51.046;6.406;2022-11-20T04:57:26;27.02;;;17.75;;
29574;SDS011;16507;51.046;6.406;2022-11-20T04:59:52;25.10;;;16.92;;
29574;SDS011;16507;51.046;6.406;2022-11-20T05:02:18;27.60;;;17.05;;
29574;SDS011;16507;51.046;6.406;2022-11-20T05:04:43;27.65;;;17.75;;
29574;SDS011;16507;51.046;6.406;2022-11-20T05:07:09;28.60;;;17.52;;
29574;SDS011;16507;51.046;6.406;2022-11-20T05:09:34;28.13;;;18.20;;
29574;SDS011;16507;51.046;6.406;2022-11-20T05:12:00;28.90;;;17.48;;
29574;SDS011;16507;51.046;6.406;2022-11-20T05:14:25;31.05;;;18.35;;
29574;SDS011;16507;51.046;6.406;2022-11-20T05:16:51;36.30;;;18.50;;
29574;SDS011;16507;51.046;6.406;2022-11-20T05:19:17;44.08;;;18.83;;
29574;SDS011;16507;51.046;6.406;2022-11-20T05:21:42;34.85;;;18.60;;
29574;SDS011;16507;51.046;6.406;2022-11-20T05:24:08;27.65;;;18.00;;
29574;SDS011;16507;51.046;6.406;2022-11-20T05:26:33;29.88;;;17.40;;
29574;SDS011;16507;51.046;6.406;2022-11-20T05:28:59;29.02;;;18.08;;
29574;SDS011;16507;51.046;6.406;2022-11-20T05:31:25;29.98;;;18.10;;
29574;SDS011;16507;51.046;6.406;2022-11-20T05:33:50;29.55;;;17.80;;
29574;SDS011;16507;51.046;6.406;2022-11-20T05:36:16;41.53;;;19.02;;
29574;SDS011;16507;51.046;6.406;2022-11-20T05:38:42;29.30;;;17.75;;
29574;SDS011;16507;51.046;6.406;2022-11-20T05:41:13;28.05;;;17.10;;
29574;SDS011;16507;51.046;6.406;2022-11-20T05:43:40;29.60;;;17.52;;
29574;SDS011;16507;51.046;6.406;2022-11-20T05:46:08;51.55;;;17.73;;
29574;SDS011;16507;51.046;6.406;2022-11-20T05:48:35;40.60;;;19.60;;
29574;SDS011;16507;51.046;6.406;2022-11-20T05:51:02;49.75;;;19.00;;
29574;SDS011;16507;51.046;6.406;2022-11-20T05:53:29;30.38;;;17.95;;
29574;SDS011;16507;51.046;6.406;2022-11-20T05:55:57;35.22;;;18.27;;
29574;SDS011;16507;51.046;6.406;2022-11-20T05:58:24;32.08;;;18.58;;
29574;SDS011;16507;51.046;6.406;2022-11-20T06:00:49;32.70;;;18.50;;
29574;SDS011;16507;51.046;6.406;2022-11-20T06:03:15;38.50;;;19.38;;
29574;SDS011;16507;51.046;6.406;2022-11-20T06:05:41;34.80;;;19.27;;
29574;SDS011;16507;51.046;6.406;2022-11-20T06:08:06;30.30;;;18.95;;
29574;SDS011;16507;51.046;6.406;2022-11-20T06:10:32;28.88;;;17.50;;
29574;SDS011;16507;51.046;6.406;2022-11-20T06:12:57;35.10;;;18.67;;
29574;SDS011;16507;51.046;6.406;2022-11-20T06:15:23;28.35;;;17.40;;
29574;SDS011;16507;51.046;6.406;2022-11-20T06:17:51;34.63;;;19.15;;
29574;SDS011;16507;51.046;6.406;2022-11-20T06:20:18;37.03;;;19.00;;
29574;SDS011;16507;51.046;6.406;2022-11-20T06:22:44;31.00;;;19.10;;
29574;SDS011;16507;51.046;6.406;2022-11-20T06:25:09;31.95;;;17.92;;
29574;SDS011;16507;51.046;6.406;2022-11-20T06:27:35;33.67;;;19.52;;
29574;SDS011;16507;51.046;6.406;2022-11-20T06:30:00;41.63;;;18.85;;
29574;SDS011;16507;51.046;6.406;2022-11-20T06:32:26;39.13;;;18.88;;
29574;SDS011;16507;51.046;6.406;2022-11-20T06:34:51;40.25;;;18.65;;
29574;SDS011;16507;51.046;6.406;2022-11-20T06:37:17;33.13;;;18.58;;
29574;SDS011;16507;51.046;6.406;2022-11-20T06:39:43;32.30;;;19.25;;
29574;SDS011;16507;51.046;6.406;2022-11-20T06:42:08;38.45;;;19.08;;
29574;SDS011;16507;51.046;6.406;2022-11-20T06:44:34;38.03;;;19.23;;
29574;SDS011;16507;51.046;6.406;2022-11-20T06:47:00;54.85;;;18.92;;
29574;SDS011;16507;51.046;6.406;2022-11-20T06:49:26;92.25;;;20.05;;
29574;SDS011;16507;51.046;6.406;2022-11-20T06:51:51;67.47;;;19.30;;
29574;SDS011;16507;51.046;6.406;2022-11-20T06:54:17;41.60;;;20.60;;
29574;SDS011;16507;51.046;6.406;2022-11-20T06:56:45;31.73;;;19.92;;
29574;SDS011;16507;51.046;6.406;2022-11-20T06:59:12;36.58;;;19.08;;
29574;SDS011;16507;51.046;6.406;2022-11-20T07:01:38;38.67;;;18.63;;
29574;SDS011;16507;51.046;6.406;2022-11-20T07:04:06;41.03;;;18.50;;
29574;SDS011;16507;51.046;6.406;2022-11-20T07:06:32;43.15;;;19.88;;
29574;SDS011;16507;51.046;6.406;2022-11-20T07:08:57;32.60;;;18.38;;
29574;SDS011;16507;51.046;6.406;2022-11-20T07:11:23;36.25;;;19.55;;
29574;SDS011;16507;51.046;6.406;2022-11-20T07:13:49;31.63;;;18.35;;
29574;SDS011;16507;51.046;6.406;2022-11-20T07:16:15;36.00;;;19.75;;
29574;SDS011;16507;51.046;6.406;2022-11-20T07:18:41;33.20;;;19.23;;
29574;SDS011;16507;51.046;6.406;2022-11-20T07:21:07;31.17;;;19.42;;
29574;SDS011;16507;51.046;6.406;2022-11-20T07:23:34;41.15;;;19.73;;
29574;SDS011;16507;51.046;6.406;2022-11-20T07:26:07;38.58;;;20.58;;
29574;SDS011;16507;51.046;6.406;2022-11-20T07:28:34;41.28;;;20.13;;
29574;SDS011;16507;51.046;6.406;2022-11-20T07:31:00;36.20;;;20.48;;
29574;SDS011;16507;51.046;6.406;2022-11-20T07:33:26;36.20;;;20.00;;
29574;SDS011;16507;51.046;6.406;2022-11-20T07:35:52;45.50;;;21.40;;
29574;SDS011;16507;51.046;6.406;2022-11-20T07:38:18;58.08;;;21.38;;
29574;SDS011;16507;51.046;6.406;2022-11-20T07:40:44;60.92;;;22.25;;
29574;SDS011;16507;51.046;6.406;2022-11-20T07:43:09;67.88;;;25.73;;
29574;SDS011;16507;51.046;6.406;2022-11-20T07:45:35;69.32;;;24.50;;
29574;SDS011;16507;51.046;6.406;2022-11-20T07:48:00;73.05;;;25.83;;
29574;SDS011;16507;51.046;6.406;2022-11-20T07:50:26;79.40;;;25.42;;
29574;SDS011;16507;51.046;6.406;2022-11-20T07:52:52;86.05;;;27.15;;
29574;SDS011;16507;51.046;6.406;2022-11-20T07:55:24;81.15;;;26.58;;
29574;SDS011;16507;51.046;6.406;2022-11-20T07:57:54;85.13;;;26.92;;
29574;SDS011;16507;51.046;6.406;2022-11-20T08:00:20;86.88;;;26.92;;
29574;SDS011;16507;51.046;6.406;2022-11-20T08:02:46;90.15;;;27.55;;
29574;SDS011;16507;51.046;6.406;2022-11-20T08:05:12;86.88;;;26.88;;
29574;SDS011;16507;51.046;6.406;2022-11-20T08:07:38;85.43;;;26.70;;
29574;SDS011;16507;51.046;6.406;2022-11-20T08:10:05;85.50;;;28.52;;
29574;SDS011;16507;51.046;6.406;2022-11-20T08:12:33;97.22;;;29.25;;
29574;SDS011;16507;51.046;6.406;2022-11-20T08:15:17;82.95;;;26.77;;
29574;SDS011;16507;51.046;6.406;2022-11-20T08:17:42;84.22;;;27.27;;
29574;SDS011;16507;51.046;6.406;2022-11-20T08:20:08;88.07;;;27.92;;
29574;SDS011;16507;51.046;6.406;2022-11-20T08:22:34;80.53;;;27.27;;
29574;SDS011;16507;51.046;6.406;2022-11-20T08:25:00;94.63;;;29.48;;
29574;SDS011;16507;51.046;6.406;2022-11-20T08:27:25;88.28;;;30.05;;
29574;SDS011;16507;51.046;6.406;2022-11-20T08:29:51;94.07;;;29.95;;
29574;SDS011;16507;51.046;6.406;2022-11-20T08:32:17;91.25;;;27.70;;
29574;SDS011;16507;51.046;6.406;2022-11-20T08:34:42;82.30;;;27.23;;
29574;SDS011;16507;51.046;6.406;2022-11-20T08:37:08;84.05;;;27.52;;
29574;SDS011;16507;51.046;6.406;2022-11-20T08:39:33;77.53;;;27.00;;
29574;SDS011;16507;51.046;6.406;2022-11-20T08:41:59;77.82;;;27.40;;
29574;SDS011;16507;51.046;6.406;2022-11-20T08:44:25;74.00;;;26.73;;
29574;SDS011;16507;51.046;6.406;2022-11-20T08:46:51;63.85;;;24.25;;
29574;SDS011;16507;51.046;6.406;2022-11-20T08:49:16;67.30;;;24.58;;
29574;SDS011;16507;51.046;6.406;2022-11-20T08:51:42;69.43;;;26.38;;
29574;SDS011;16507;51.046;6.406;2022-11-20T08:54:08;68.78;;;27.05;;
29574;SDS011;16507;51.046;6.406;2022-11-20T08:56:34;74.78;;;25.92;;
29574;SDS011;16507;51.046;6.406;2022-11-20T08:59:00;70.93;;;26.20;;
29574;SDS011;16507;51.046;6.406;2022-11-20T09:01:26;78.13;;;27.13;;
29574;SDS011;16507;51.046;6.406;2022-11-20T09:03:55;60.80;;;24.05;;
29574;SDS011;16507;51.046;6.406;2022-11-20T09:06:21;59.45;;;24.05;;
29574;SDS011;16507;51.046;6.406;2022-11-20T09:08:47;62.70;;;24.27;;
29574;SDS011;16507;51.046;6.406;2022-11-20T09:11:17;58.25;;;23.20;;
29574;SDS011;16507;51.046;6.406;2022-11-20T09:13:43;64.95;;;23.83;;
29574;SDS011;16507;51.046;6.406;2022-11-20T09:16:08;56.72;;;22.25;;
29574;SDS011;16507;51.046;6.406;2022-11-20T09:18:34;48.67;;;21.33;;
29574;SDS011;16507;51.046;6.406;2022-11-20T09:21:05;50.90;;;21.20;;
29574;SDS011;16507;51.046;6.406;2022-11-20T09:23:33;52.60;;;22.15;;
29574;SDS011;16507;51.046;6.406;2022-11-20T09:26:06;50.17;;;20.60;;
29574;SDS011;16507;51.046;6.406;2022-11-20T09:28:36;41.63;;;19.88;;
29574;SDS011;16507;51.046;6.406;2022-11-20T09:31:06;43.97;;;19.95;;
29574;SDS011;16507;51.046;6.406;2022-11-20T09:33:33;43.67;;;20.63;;
29574;SDS011;16507;51.046;6.406;2022-11-20T09:35:59;53.70;;;21.58;;
29574;SDS011;16507;51.046;6.406;2022-11-20T09:38:25;66.15;;;21.45;;
29574;SDS011;16507;51.046;6.406;2022-11-20T09:43:32;56.42;;;20.67;;
29574;SDS011;16507;51.046;6.406;2022-11-20T09:46:29;47.90;;;20.83;;
29574;SDS011;16507;51.046;6.406;2022-11-20T09:54:27;45.30;;;20.52;;
29574;SDS011;16507;51.046;6.406;2022-11-20T09:57:00;44.10;;;19.70;;
29574;SDS011;16507;51.046;6.406;2022-11-20T10:02:00;47.63;;;19.50;;
29574;SDS011;16507;51.046;6.406;2022-11-20T10:04:36;53.25;;;21.63;;
29574;SDS011;16507;51.046;6.406;2022-11-20T10:07:12;40.67;;;20.40;;
29574;SDS011;16507;51.046;6.406;2022-11-20T10:09:43;40.00;;;18.63;;
29574;SDS011;16507;51.046;6.406;2022-11-20T10:12:31;40.22;;;18.60;;
29574;SDS011;16507;51.046;6.406;2022-11-20T10:15:22;45.10;;;19.65;;
29574;SDS011;16507;51.046;6.406;2022-11-20T10:18:09;39.55;;;19.75;;
29574;SDS011;16507;51.046;6.406;2022-11-20T10:21:07;39.97;;;18.88;;
29574;SDS011;16507;51.046;6.406;2022-11-20T10:29:18;38.03;;;18.00;;
29574;SDS011;16507;51.046;6.406;2022-11-20T10:31:48;37.88;;;19.23;;
29574;SDS011;16507;51.046;6.406;2022-11-20T10:34:31;38.72;;;18.88;;
29574;SDS011;16507;51.046;6.406;2022-11-20T10:37:23;40.95;;;19.45;;
29574;SDS011;16507;51.046;6.406;2022-11-20T10:45:09;35.53;;;17.83;;
29574;SDS011;16507;51.046;6.406;2022-11-20T10:47:46;34.83;;;17.58;;
29574;SDS011;16507;51.046;6.406;2022-11-20T10:50:14;45.40;;;19.70;;
29574;SDS011;16507;51.046;6.406;2022-11-20T10:55:24;41.40;;;19.10;;
29574;SDS011;16507;51.046;6.406;2022-11-20T10:58:17;40.63;;;19.17;;
29574;SDS011;16507;51.046;6.406;2022-11-20T11:00:45;44.58;;;18.65;;
29574;SDS011;16507;51.046;6.406;2022-11-20T11:03:26;42.53;;;19.42;;
29574;SDS011;16507;51.046;6.406;2022-11-20T11:06:02;52.22;;;21.48;;
29574;SDS011;16507;51.046;6.406;2022-11-20T11:08:37;41.28;;;20.60;;
29574;SDS011;16507;51.046;6.406;2022-11-20T11:11:21;50.47;;;20.90;;
29574;SDS011;16507;51.046;6.406;2022-11-20T11:14:04;42.03;;;20.25;;
29574;SDS011;16507;51.046;6.406;2022-11-20T11:16:50;38.88;;;20.20;;
29574;SDS011;16507;51.046;6.406;2022-11-20T11:19:21;43.93;;;20.73;;
29574;SDS011;16507;51.046;6.406;2022-11-20T11:21:47;39.80;;;20.67;;
29574;SDS011;16507;51.046;6.406;2022-11-20T11:24:25;41.75;;;20.15;;
29574;SDS011;16507;51.046;6.406;2022-11-20T11:26:53;39.88;;;19.77;;
29574;SDS011;16507;51.046;6.406;2022-11-20T11:29:28;44.50;;;19.48;;
29574;SDS011;16507;51.046;6.406;2022-11-20T11:32:07;43.15;;;20.80;;
29574;SDS011;16507;51.046;6.406;2022-11-20T11:34:40;44.78;;;21.92;;
29574;SDS011;16507;51.046;6.406;2022-11-20T11:37:19;39.83;;;19.83;;
29574;SDS011;16507;51.046;6.406;2022-11-20T11:39:48;41.33;;;21.27;;
29574;SDS011;16507;51.046;6.406;2022-11-20T11:42:16;44.78;;;19.90;;
29574;SDS011;16507;51.046;6.406;2022-11-20T11:44:44;44.22;;;19.63;;
29574;SDS011;16507;51.046;6.406;2022-11-20T11:47:32;38.20;;;20.35;;
29574;SDS011;16507;51.046;6.406;2022-11-20T11:50:18;47.35;;;20.15;;
29574;SDS011;16507;51.046;6.406;2022-11-20T11:52:48;40.63;;;19.90;;
29574;SDS011;16507;51.046;6.406;2022-11-20T11:55:15;37.95;;;20.45;;
29574;SDS011;16507;51.046;6.406;2022-11-20T12:00:45;36.10;;;18.92;;
29574;SDS011;16507;51.046;6.406;2022-11-20T12:03:29;37.22;;;19.27;;
29574;SDS011;16507;51.046;6.406;2022-11-20T12:06:09;47.10;;;19.73;;
29574;SDS011;16507;51.046;6.406;2022-11-20T12:08:51;49.70;;;20.92;;
29574;SDS011;16507;51.046;6.406;2022-11-20T12:14:27;41.22;;;20.50;;
29574;SDS011;16507;51.046;6.406;2022-11-20T12:17:01;49.42;;;20.90;;
29574;SDS011;16507;51.046;6.406;2022-11-20T12:19:31;53.63;;;23.35;;
29574;SDS011;16507;51.046;6.406;2022-11-20T12:22:05;47.53;;;21.85;;
29574;SDS011;16507;51.046;6.406;2022-11-20T12:25:12;47.13;;;21.90;;
29574;SDS011;16507;51.046;6.406;2022-11-20T12:27:52;51.38;;;22.50;;
29574;SDS011;16507;51.046;6.406;2022-11-20T12:30:35;47.92;;;23.15;;
29574;SDS011;16507;51.046;6.406;2022-11-20T12:36:44;51.15;;;22.42;;
29574;SDS011;16507;51.046;6.406;2022-11-20T12:39:34;48.58;;;22.77;;
29574;SDS011;16507;51.046;6.406;2022-11-20T12:58:50;48.70;;;23.27;;
29574;SDS011;16507;51.046;6.406;2022-11-20T13:01:40;48.05;;;21.55;;
29574;SDS011;16507;51.046;6.406;2022-11-20T13:04:34;43.38;;;20.70;;
29574;SDS011;16507;51.046;6.406;2022-11-20T13:07:05;51.92;;;21.15;;
29574;SDS011;16507;51.046;6.406;2022-11-20T13:09:34;45.35;;;22.02;;
29574;SDS011;16507;51.046;6.406;2022-11-20T13:12:12;52.47;;;21.42;;
29574;SDS011;16507;51.046;6.406;2022-11-20T13:15:05;40.38;;;20.25;;
29574;SDS011;16507;51.046;6.406;2022-11-20T13:17:51;46.50;;;21.30;;
29574;SDS011;16507;51.046;6.406;2022-11-20T13:20:22;40.88;;;20.73;;
29574;SDS011;16507;51.046;6.406;2022-11-20T13:22:48;42.95;;;21.15;;
29574;SDS011;16507;51.046;6.406;2022-11-20T13:25:26;44.08;;;19.50;;
29574;SDS011;16507;51.046;6.406;2022-11-20T13:27:58;41.85;;;19.23;;
29574;SDS011;16507;51.046;6.406;2022-11-20T13:30:26;43.00;;;19.08;;
29574;SDS011;16507;51.046;6.406;2022-11-20T13:35:30;37.00;;;19.65;;
29574;SDS011;16507;51.046;6.406;2022-11-20T13:40:34;39.20;;;19.05;;
29574;SDS011;16507;51.046;6.406;2022-11-20T13:43:18;37.65;;;18.98;;
29574;SDS011;16507;51.046;6.406;2022-11-20T13:45:54;49.85;;;19.25;;
29574;SDS011;16507;51.046;6.406;2022-11-20T13:48:40;38.65;;;19.08;;
29574;SDS011;16507;51.046;6.406;2022-11-20T13:59:55;34.47;;;17.85;;
29574;SDS011;16507;51.046;6.406;2022-11-20T14:02:23;38.95;;;18.15;;
29574;SDS011;16507;51.046;6.406;2022-11-20T14:04:53;39.13;;;19.48;;
29574;SDS011;16507;51.046;6.406;2022-11-20T14:07:23;49.08;;;19.08;;
29574;SDS011;16507;51.046;6.406;2022-11-20T14:09:56;38.83;;;18.65;;
29574;SDS011;16507;51.046;6.406;2022-11-20T14:12:26;37.85;;;19.77;;
29574;SDS011;16507;51.046;6.406;2022-11-20T14:14:56;31.98;;;17.58;;
29574;SDS011;16507;51.046;6.406;2022-11-20T14:17:24;35.28;;;17.00;;
29574;SDS011;16507;51.046;6.406;2022-11-20T14:20:00;40.72;;;17.77;;
29574;SDS011;16507;51.046;6.406;2022-11-20T14:22:31;45.55;;;18.58;;
29574;SDS011;16507;51.046;6.406;2022-11-20T14:25:04;38.70;;;18.15;;
29574;SDS011;16507;51.046;6.406;2022-11-20T14:27:41;37.22;;;18.52;;
29574;SDS011;16507;51.046;6.406;2022-11-20T14:30:12;32.92;;;17.52;;
29574;SDS011;16507;51.046;6.406;2022-11-20T14:32:40;32.67;;;17.08;;
29574;SDS011;16507;51.046;6.406;2022-11-20T14:35:09;42.08;;;18.42;;
29574;SDS011;16507;51.046;6.406;2022-11-20T14:37:39;56.25;;;18.13;;
29574;SDS011;16507;51.046;6.406;2022-11-20T14:42:52;36.00;;;18.45;;
29574;SDS011;16507;51.046;6.406;2022-11-20T14:45:18;39.05;;;18.60;;
29574;SDS011;16507;51.046;6.406;2022-11-20T14:47:45;38.78;;;17.45;;
29574;SDS011;16507;51.046;6.406;2022-11-20T14:50:32;41.25;;;18.25;;
29574;SDS011;16507;51.046;6.406;2022-11-20T14:52:58;37.58;;;18.38;;
29574;SDS011;16507;51.046;6.406;2022-11-20T14:55:53;34.35;;;16.73;;
29574;SDS011;16507;51.046;6.406;2022-11-20T14:58:23;60.33;;;17.48;;
29574;SDS011;16507;51.046;6.406;2022-11-20T15:00:59;99.22;;;19.45;;
29574;SDS011;16507;51.046;6.406;2022-11-20T15:03:34;41.70;;;18.27;;
29574;SDS011;16507;51.046;6.406;2022-11-20T15:06:01;44.55;;;17.15;;
29574;SDS011;16507;51.046;6.406;2022-11-20T15:08:27;42.80;;;17.45;;
29574;SDS011;16507;51.046;6.406;2022-11-20T15:10:52;45.75;;;18.35;;
29574;SDS011;16507;51.046;6.406;2022-11-20T15:13:52;43.55;;;18.25;;
29574;SDS011;16507;51.046;6.406;2022-11-20T15:16:14;37.92;;;17.38;;
29574;SDS011;16507;51.046;6.406;2022-11-20T15:18:45;41.08;;;18.13;;
29574;SDS011;16507;51.046;6.406;2022-11-20T15:21:12;68.47;;;16.15;;
29574;SDS011;16507;51.046;6.406;2022-11-20T15:23:39;48.35;;;13.98;;
29574;SDS011;16507;51.046;6.406;2022-11-20T15:26:05;39.47;;;14.57;;
29574;SDS011;16507;51.046;6.406;2022-11-20T15:28:35;35.28;;;15.38;;
29574;SDS011;16507;51.046;6.406;2022-11-20T15:31:04;35.97;;;14.85;;
29574;SDS011;16507;51.046;6.406;2022-11-20T15:33:31;42.83;;;13.18;;
29574;SDS011;16507;51.046;6.406;2022-11-20T15:35:58;49.38;;;13.38;;
29574;SDS011;16507;51.046;6.406;2022-11-20T15:38:24;41.85;;;11.07;;
29574;SDS011;16507;51.046;6.406;2022-11-20T15:40:49;40.00;;;11.55;;
29574;SDS011;16507;51.046;6.406;2022-11-20T15:43:15;45.22;;;11.30;;
29574;SDS011;16507;51.046;6.406;2022-11-20T15:45:42;35.25;;;10.95;;
29574;SDS011;16507;51.046;6.406;2022-11-20T15:48:14;26.75;;;12.38;;
29574;SDS011;16507;51.046;6.406;2022-11-20T15:50:47;46.30;;;14.90;;